EKVD

Kolding Vamdrup Airport

Kolding / Vamdrup, Denmark
METAR EKVD 181620Z AUTO 23007KT //// ///////// 02/02 Q1024
Observed Flight Rules
Dec-18 @ 16:20 UTC (24 minutes ago)
Wind
230° at 7 knots
Temperatures Readings
Current 2°C / 36°F
Dewpoint 2°C / 36°F
Humidity 100%
Altimeter 30.24" Hg
Pressure 1024 hPa
Elevation 45
METAR EKVD 181620Z AUTO 23007KT //// ///////// 02/02 Q1024
Observed Flight Rules
Dec-18 @ 16:20 UTC
(24 minutes ago)
Wind
230° at 7 knots
Temperature Dewpoint
2°C / 36°F 2°C / 36°F
Humidity Altimeter Pressure
100% 30.24" Hg 1024 hPa